createdAt,value
2022-09-23T00:01:25.145Z,7.10
2022-09-23T00:03:53.513Z,7.12
2022-09-23T00:06:22.856Z,7.18
2022-09-23T00:08:51.230Z,6.95
2022-09-23T00:11:24.240Z,7.19
2022-09-23T00:13:54.505Z,6.76
2022-09-23T00:16:28.700Z,7.14
2022-09-23T00:18:57.025Z,7.19
2022-09-23T00:21:25.516Z,6.34
2022-09-23T00:23:53.833Z,5.73
2022-09-23T00:26:22.745Z,6.20
2022-09-23T00:28:51.101Z,6.47
2022-09-23T00:31:22.282Z,6.54
2022-09-23T00:34:00.941Z,6.55
2022-09-23T00:36:29.410Z,6.41
2022-09-23T00:38:57.692Z,6.65
2022-09-23T00:41:26.215Z,6.62
2022-09-23T00:44:01.061Z,6.38
2022-09-23T00:46:38.012Z,6.66
2022-09-23T00:49:25.582Z,6.82
2022-09-23T00:52:02.808Z,6.73
2022-09-23T00:54:31.331Z,5.68
2022-09-23T00:57:00.011Z,5.74
2022-09-23T00:59:29.357Z,5.55
2022-09-23T01:01:58.135Z,5.59
2022-09-23T01:04:27.540Z,4.28
2022-09-23T01:06:55.728Z,4.92
2022-09-23T01:09:23.888Z,4.62
2022-09-23T01:11:52.039Z,4.35
2022-09-23T01:14:32.377Z,4.97
2022-09-23T01:17:07.734Z,5.14
2022-09-23T01:19:36.188Z,5.21
2022-09-23T01:22:28.142Z,5.81
2022-09-23T01:24:59.687Z,5.92
2022-09-23T01:27:46.224Z,5.98
2022-09-23T01:30:31.708Z,6.12
2022-09-23T01:33:43.438Z,6.08
2022-09-23T01:36:19.337Z,5.07
2022-09-23T01:39:09.563Z,4.87
2022-09-23T01:42:07.432Z,5.60
2022-09-23T01:44:43.265Z,5.50
2022-09-23T01:47:15.280Z,4.76
2022-09-23T01:50:30.753Z,5.41
2022-09-23T01:53:10.915Z,4.78
2022-09-23T01:55:41.510Z,4.96
2022-09-23T01:58:20.096Z,5.38
2022-09-23T02:00:56.055Z,5.60
2022-09-23T02:03:32.621Z,5.42
2022-09-23T02:06:23.769Z,5.72
2022-09-23T02:08:57.851Z,5.61
2022-09-23T02:11:27.238Z,5.29
2022-09-23T02:14:35.400Z,4.66
2022-09-23T02:17:08.826Z,4.28
2022-09-23T02:19:48.151Z,4.82
2022-09-23T02:22:22.369Z,4.91
2022-09-23T02:24:50.744Z,5.08
2022-09-23T02:27:35.595Z,4.71
2022-09-23T02:30:09.872Z,4.61
2022-09-23T02:32:53.523Z,4.80
2022-09-23T02:35:33.129Z,4.96
2022-09-23T02:38:19.608Z,4.41
2022-09-23T02:40:54.829Z,4.35
2022-09-23T02:43:34.131Z,4.67
2022-09-23T02:46:05.865Z,4.59
2022-09-23T02:48:43.613Z,4.97
2022-09-23T02:51:11.871Z,4.97
2022-09-23T02:53:40.223Z,5.03
2022-09-23T02:56:21.241Z,5.09
2022-09-23T02:58:50.353Z,4.94
2022-09-23T03:01:45.492Z,5.07
2022-09-23T03:04:16.822Z,4.98
2022-09-23T03:06:55.260Z,5.05
2022-09-23T03:09:53.138Z,4.28
2022-09-23T03:12:40.263Z,4.77
2022-09-23T03:15:27.159Z,5.08
2022-09-23T03:18:13.132Z,4.68
2022-09-23T03:20:50.793Z,4.66
2022-09-23T03:23:23.843Z,4.81
2022-09-23T03:25:54.218Z,5.04
2022-09-23T03:28:22.805Z,4.83
2022-09-23T03:30:51.352Z,4.78
2022-09-23T03:33:21.147Z,4.89
2022-09-23T03:36:19.975Z,4.54
2022-09-23T03:38:53.052Z,4.63
2022-09-23T03:41:30.528Z,4.75
2022-09-23T03:43:59.033Z,5.00
2022-09-23T03:46:28.764Z,5.11
2022-09-23T03:48:59.996Z,5.02
2022-09-23T03:51:28.289Z,5.11
2022-09-23T03:53:56.582Z,5.25
2022-09-23T03:56:24.798Z,5.28
2022-09-23T03:58:53.136Z,5.39
2022-09-23T04:01:21.644Z,5.13
2022-09-23T04:03:49.967Z,4.18
2022-09-23T04:06:18.914Z,4.83
2022-09-23T04:08:47.274Z,4.63
2022-09-23T04:11:15.597Z,4.65
2022-09-23T04:13:43.799Z,4.67
2022-09-23T04:16:12.339Z,4.30
2022-09-23T04:18:41.120Z,4.81
2022-09-23T04:21:09.602Z,4.84
2022-09-23T04:23:37.863Z,4.83
2022-09-23T04:26:06.551Z,4.89
2022-09-23T04:28:34.944Z,4.90
2022-09-23T04:31:07.082Z,4.83
2022-09-23T04:33:35.430Z,4.86
2022-09-23T04:36:03.707Z,4.87
2022-09-23T04:38:31.995Z,4.73
2022-09-23T04:41:00.578Z,4.57
2022-09-23T04:43:28.811Z,4.65
2022-09-23T04:46:04.898Z,4.21
2022-09-23T04:48:33.453Z,4.11
2022-09-23T04:51:18.364Z,4.27
2022-09-23T04:53:47.745Z,4.50
2022-09-23T04:56:27.273Z,4.48
2022-09-23T04:58:58.506Z,4.64
2022-09-23T05:01:30.114Z,4.15
2022-09-23T05:04:03.004Z,4.49
2022-09-23T05:06:33.246Z,4.15
2022-09-23T05:09:01.814Z,4.57
2022-09-23T05:11:30.574Z,4.41
2022-09-23T05:13:59.218Z,4.46
2022-09-23T05:16:27.582Z,4.67
2022-09-23T05:18:56.074Z,4.70
2022-09-23T05:21:25.083Z,5.03
2022-09-23T05:23:55.433Z,5.32
2022-09-23T05:26:25.707Z,5.05
2022-09-23T05:28:54.375Z,5.12
2022-09-23T05:31:24.458Z,5.41
2022-09-23T05:33:54.169Z,5.24
2022-09-23T05:36:24.206Z,5.45
2022-09-23T05:38:53.359Z,5.74
2022-09-23T05:41:23.368Z,5.63
2022-09-23T05:43:55.544Z,5.77
2022-09-23T05:46:26.669Z,5.18
2022-09-23T05:49:02.483Z,5.82
2022-09-23T05:51:31.827Z,5.85
2022-09-23T05:54:00.534Z,6.26
2022-09-23T05:56:28.877Z,6.22
2022-09-23T05:58:58.339Z,6.57
2022-09-23T06:01:29.478Z,6.83
2022-09-23T06:03:58.375Z,6.62
2022-09-23T06:06:29.430Z,6.71
2022-09-23T06:08:59.412Z,6.96
2022-09-23T06:11:30.151Z,6.99
2022-09-23T06:14:02.641Z,6.77
2022-09-23T06:16:35.122Z,7.33
2022-09-23T06:19:06.703Z,7.46
2022-09-23T06:21:36.760Z,7.76
2022-09-23T06:24:05.625Z,7.80
2022-09-23T06:26:35.467Z,7.91
2022-09-23T06:29:04.830Z,7.92
2022-09-23T06:31:33.301Z,7.73
2022-09-23T06:34:10.689Z,7.76
2022-09-23T06:36:46.188Z,7.98
2022-09-23T06:39:15.583Z,8.31
2022-09-23T06:41:45.028Z,8.37
2022-09-23T06:44:14.489Z,8.28
2022-09-23T06:46:43.037Z,8.51
2022-09-23T06:49:12.414Z,8.37
2022-09-23T06:51:42.188Z,8.76
2022-09-23T06:54:14.385Z,8.80
2022-09-23T06:56:44.059Z,8.51
2022-09-23T06:59:13.316Z,9.18
2022-09-23T07:01:41.951Z,9.25
2022-09-23T07:04:11.029Z,9.41
2022-09-23T07:06:39.496Z,9.74
2022-09-23T07:09:08.004Z,9.73
2022-09-23T07:11:36.281Z,9.57
2022-09-23T07:14:04.931Z,9.83
2022-09-23T07:16:33.874Z,9.99
2022-09-23T07:19:02.811Z,9.86
2022-09-23T07:21:31.224Z,9.03
2022-09-23T07:23:59.529Z,9.57
2022-09-23T07:26:27.913Z,9.92
2022-09-23T07:28:57.069Z,9.96
2022-09-23T07:31:37.484Z,10.06
2022-09-23T07:34:08.719Z,10.68
2022-09-23T07:36:40.985Z,10.79
2022-09-23T07:39:11.360Z,10.70
2022-09-23T07:41:40.230Z,11.05
2022-09-23T07:44:11.375Z,10.78
2022-09-23T07:46:40.471Z,11.32
2022-09-23T07:49:08.977Z,11.41
2022-09-23T07:51:38.667Z,11.24
2022-09-23T07:54:08.867Z,11.77
2022-09-23T07:56:37.601Z,11.29
2022-09-23T07:59:09.238Z,11.69
2022-09-23T08:01:42.542Z,12.06
2022-09-23T08:04:19.289Z,12.36
2022-09-23T08:06:49.567Z,11.73
2022-09-23T08:09:19.872Z,12.26
2022-09-23T08:11:48.651Z,12.35
2022-09-23T08:14:18.776Z,12.22
2022-09-23T08:16:47.925Z,12.77
2022-09-23T08:19:16.468Z,13.11
2022-09-23T08:21:47.892Z,12.78
2022-09-23T08:24:21.132Z,13.33
2022-09-23T08:26:49.717Z,13.46
2022-09-23T08:29:19.115Z,13.95
2022-09-23T08:31:48.155Z,13.52
2022-09-23T08:34:19.942Z,13.26
2022-09-23T08:36:48.483Z,13.19
2022-09-23T08:39:18.119Z,13.16
2022-09-23T08:42:22.405Z,13.99
2022-09-23T08:44:54.568Z,14.52
2022-09-23T08:47:31.739Z,13.08
2022-09-23T08:50:25.195Z,13.93
2022-09-23T08:53:04.368Z,13.67
2022-09-23T08:55:38.188Z,13.59
2022-09-23T08:58:25.339Z,14.36
2022-09-23T09:01:02.847Z,14.25
2022-09-23T09:03:36.150Z,14.12
2022-09-23T09:06:04.794Z,14.33
2022-09-23T09:08:35.308Z,14.82
2022-09-23T09:11:03.638Z,14.62
2022-09-23T09:13:44.232Z,15.20
2022-09-23T09:16:58.996Z,15.03
2022-09-23T09:19:53.099Z,15.17
2022-09-23T09:22:38.081Z,14.63
2022-09-23T09:25:34.215Z,15.28
2022-09-23T09:28:04.709Z,15.10
2022-09-23T09:30:33.508Z,14.82
2022-09-23T09:33:07.138Z,15.62
2022-09-23T09:35:54.088Z,15.59
2022-09-23T09:38:22.492Z,16.14
2022-09-23T09:40:50.937Z,16.14
2022-09-23T09:43:25.519Z,16.42
2022-09-23T09:46:22.062Z,16.12
2022-09-23T09:49:08.904Z,15.65
2022-09-23T09:51:40.054Z,15.52
2022-09-23T09:54:23.319Z,15.81
2022-09-23T09:56:51.885Z,15.22
2022-09-23T09:59:30.272Z,15.26
2022-09-23T10:02:21.743Z,15.59
2022-09-23T10:05:23.241Z,14.72
2022-09-23T10:07:51.759Z,15.50
2022-09-23T10:10:33.493Z,15.57
2022-09-23T10:13:15.330Z,15.47
2022-09-23T10:15:47.485Z,15.86
2022-09-23T10:18:38.991Z,15.27
2022-09-23T10:21:14.690Z,14.94
2022-09-23T10:23:45.457Z,15.05
2022-09-23T10:26:15.399Z,15.12
2022-09-23T10:28:53.466Z,15.58
2022-09-23T10:31:30.232Z,14.66
2022-09-23T10:34:04.463Z,14.56
2022-09-23T10:36:33.413Z,15.40
2022-09-23T10:39:22.896Z,14.87
2022-09-23T10:42:17.009Z,15.40
2022-09-23T10:45:20.911Z,15.49
2022-09-23T10:48:06.139Z,15.80
2022-09-23T10:50:42.352Z,15.31
2022-09-23T10:53:42.576Z,15.47
2022-09-23T10:56:16.688Z,16.42
2022-09-23T10:58:59.238Z,16.00
2022-09-23T11:01:39.491Z,15.67
2022-09-23T11:04:25.256Z,16.48
2022-09-23T11:07:21.462Z,16.16
2022-09-23T11:10:41.944Z,16.32
2022-09-23T11:13:33.258Z,16.74
2022-09-23T11:16:26.265Z,16.38
2022-09-23T11:18:54.613Z,16.30
2022-09-23T11:21:41.107Z,16.09
2022-09-23T11:24:36.549Z,16.23
2022-09-23T11:27:26.330Z,15.57
2022-09-23T11:30:06.900Z,16.21
2022-09-23T11:32:44.136Z,16.36
2022-09-23T11:35:33.116Z,16.15
2022-09-23T11:38:08.698Z,16.39
2022-09-23T11:40:43.898Z,16.44
2022-09-23T11:43:33.697Z,16.50
2022-09-23T11:46:20.891Z,16.39
2022-09-23T11:48:57.741Z,16.10
2022-09-23T11:51:41.278Z,16.28
2022-09-23T11:54:26.498Z,16.43
2022-09-23T11:56:57.720Z,16.45
2022-09-23T11:59:49.670Z,16.75
2022-09-23T12:02:36.424Z,17.15
2022-09-23T12:05:15.129Z,16.99
2022-09-23T12:07:46.687Z,16.96
2022-09-23T12:10:15.362Z,16.60
2022-09-23T12:13:27.727Z,17.05
2022-09-23T12:16:32.688Z,15.99
2022-09-23T12:19:11.564Z,16.49
2022-09-23T12:21:56.932Z,16.33
2022-09-23T12:24:47.119Z,16.77
2022-09-23T12:27:46.043Z,16.77
2022-09-23T12:30:22.755Z,17.06
2022-09-23T12:32:51.518Z,16.36
2022-09-23T12:35:35.927Z,16.58
2022-09-23T12:38:12.030Z,16.55
2022-09-23T12:40:44.156Z,15.86
2022-09-23T12:43:19.196Z,16.03
2022-09-23T12:45:48.325Z,16.33
2022-09-23T12:48:16.768Z,16.51
2022-09-23T12:51:18.979Z,16.37
2022-09-23T12:54:05.599Z,16.62
2022-09-23T12:56:36.727Z,16.85
2022-09-23T12:59:30.007Z,16.83
2022-09-23T13:01:58.925Z,16.51
2022-09-23T13:04:51.078Z,16.55
2022-09-23T13:07:34.333Z,16.06
2022-09-23T13:10:24.311Z,16.44
2022-09-23T13:12:53.659Z,16.78
2022-09-23T13:15:31.491Z,16.86
2022-09-23T13:18:22.250Z,17.21
2022-09-23T13:20:54.366Z,16.74
2022-09-23T13:23:31.572Z,16.62
2022-09-23T13:26:10.298Z,16.53
2022-09-23T13:28:55.037Z,16.05
2022-09-23T13:31:23.435Z,15.82
2022-09-23T13:34:03.590Z,16.42
2022-09-23T13:36:36.974Z,16.33
2022-09-23T13:39:24.847Z,16.21
2022-09-23T13:41:54.349Z,16.59
2022-09-23T13:44:22.921Z,16.56
2022-09-23T13:46:53.833Z,16.65
2022-09-23T13:49:22.139Z,16.46
2022-09-23T13:51:53.698Z,16.56
2022-09-23T13:54:29.245Z,16.64
2022-09-23T13:56:57.604Z,16.89
2022-09-23T13:59:30.030Z,16.74
2022-09-23T14:02:12.365Z,16.31
2022-09-23T14:04:43.272Z,16.18
2022-09-23T14:07:15.770Z,16.19
2022-09-23T14:09:45.648Z,16.13
2022-09-23T14:12:14.538Z,16.34
2022-09-23T14:14:44.352Z,16.10
2022-09-23T14:17:14.858Z,15.81
2022-09-23T14:19:44.963Z,15.59
2022-09-23T14:22:27.728Z,15.89
2022-09-23T14:24:56.709Z,15.66
2022-09-23T14:27:31.571Z,15.83
2022-09-23T14:30:00.711Z,15.52
2022-09-23T14:32:30.201Z,16.00
2022-09-23T14:35:01.655Z,15.97
2022-09-23T14:37:58.028Z,16.00
2022-09-23T14:40:49.294Z,15.93
2022-09-23T14:43:18.395Z,15.70
2022-09-23T14:45:48.926Z,15.26
2022-09-23T14:48:19.349Z,15.89
2022-09-23T14:50:58.455Z,15.90
2022-09-23T14:53:31.156Z,16.08
2022-09-23T14:56:08.319Z,15.67
2022-09-23T14:58:49.615Z,15.57
2022-09-23T15:01:32.912Z,15.80
2022-09-23T15:04:21.927Z,15.74
2022-09-23T15:06:58.740Z,15.78
2022-09-23T15:09:31.702Z,15.62
2022-09-23T15:12:07.783Z,15.76
2022-09-23T15:14:50.811Z,15.77
2022-09-23T15:17:25.080Z,15.83
2022-09-23T15:19:58.048Z,15.80
2022-09-23T15:22:26.847Z,15.59
2022-09-23T15:25:15.770Z,15.47
2022-09-23T15:28:00.072Z,15.64
2022-09-23T15:30:28.996Z,15.46
2022-09-23T15:32:58.165Z,15.57
2022-09-23T15:35:28.450Z,15.44
2022-09-23T15:37:59.159Z,15.36
2022-09-23T15:40:35.363Z,14.91
2022-09-23T15:43:29.255Z,15.25
2022-09-23T15:45:59.120Z,14.82
2022-09-23T15:48:32.754Z,15.08
2022-09-23T15:51:04.397Z,14.47
2022-09-23T15:53:34.297Z,14.86
2022-09-23T15:56:03.345Z,14.55
2022-09-23T15:58:32.494Z,14.78
2022-09-23T16:01:04.691Z,14.75
2022-09-23T16:03:33.591Z,14.47
2022-09-23T16:06:05.580Z,14.68
2022-09-23T16:08:33.933Z,14.21
2022-09-23T16:11:02.416Z,14.28
2022-09-23T16:13:30.900Z,14.29
2022-09-23T16:16:00.990Z,14.35
2022-09-23T16:18:30.330Z,13.91
2022-09-23T16:21:02.434Z,14.28
2022-09-23T16:23:37.404Z,13.91
2022-09-23T16:26:18.629Z,13.10
2022-09-23T16:28:50.485Z,13.33
2022-09-23T16:31:20.011Z,13.37
2022-09-23T16:33:49.342Z,13.62
2022-09-23T16:36:17.643Z,12.92
2022-09-23T16:38:48.408Z,12.75
2022-09-23T16:41:16.846Z,12.84
2022-09-23T16:43:45.296Z,13.25
2022-09-23T16:46:15.957Z,13.13
2022-09-23T16:48:51.389Z,13.27
2022-09-23T16:51:22.687Z,13.44
2022-09-23T16:53:53.114Z,12.88
2022-09-23T16:56:28.190Z,13.01
2022-09-23T16:58:57.254Z,12.86
2022-09-23T17:01:46.088Z,13.18
2022-09-23T17:04:17.122Z,13.08
2022-09-23T17:06:50.444Z,12.73
2022-09-23T17:09:20.448Z,13.14
2022-09-23T17:11:54.166Z,13.24
2022-09-23T17:14:28.279Z,13.14
2022-09-23T17:16:59.930Z,12.89
2022-09-23T17:19:30.857Z,12.92
2022-09-23T17:22:00.282Z,12.95
2022-09-23T17:24:28.908Z,12.95
2022-09-23T17:26:57.269Z,12.83
2022-09-23T17:29:27.117Z,12.15
2022-09-23T17:31:56.364Z,12.36
2022-09-23T17:34:30.396Z,12.63
2022-09-23T17:37:01.935Z,12.56
2022-09-23T17:39:34.521Z,12.35
2022-09-23T17:42:10.449Z,12.37
2022-09-23T17:44:41.053Z,12.30
2022-09-23T17:47:12.407Z,12.39
2022-09-23T17:49:42.688Z,12.24
2022-09-23T17:52:11.989Z,12.34
2022-09-23T17:54:41.228Z,12.37
2022-09-23T17:57:19.657Z,12.10
2022-09-23T17:59:52.759Z,11.72
2022-09-23T18:02:23.779Z,11.93
2022-09-23T18:04:57.637Z,11.86
2022-09-23T18:07:30.499Z,11.81
2022-09-23T18:10:00.506Z,11.67
2022-09-23T18:12:31.839Z,11.62
2022-09-23T18:15:00.674Z,11.53
2022-09-23T18:17:30.819Z,11.59
2022-09-23T18:20:03.319Z,11.55
2022-09-23T18:22:34.934Z,11.44
2022-09-23T18:25:38.283Z,11.22
2022-09-23T18:28:07.783Z,11.00
2022-09-23T18:30:37.123Z,11.09
2022-09-23T18:33:18.749Z,11.14
2022-09-23T18:36:00.010Z,10.94
2022-09-23T18:38:33.199Z,10.88
2022-09-23T18:41:20.973Z,10.89
2022-09-23T18:43:56.610Z,11.21
2022-09-23T18:46:47.111Z,10.80
2022-09-23T18:49:40.857Z,11.04
2022-09-23T18:52:11.883Z,10.47
2022-09-23T18:54:43.830Z,10.74
2022-09-23T18:57:14.912Z,10.98
2022-09-23T18:59:45.452Z,10.34
2022-09-23T19:02:17.442Z,10.25
2022-09-23T19:04:48.153Z,9.81
2022-09-23T19:07:23.218Z,10.43
2022-09-23T19:09:54.811Z,10.42
2022-09-23T19:12:23.959Z,10.40
2022-09-23T19:14:53.180Z,10.21
2022-09-23T19:17:23.217Z,10.15
2022-09-23T19:20:02.698Z,10.35
2022-09-23T19:22:43.806Z,10.57
2022-09-23T19:25:14.805Z,10.45
2022-09-23T19:27:49.239Z,10.36
2022-09-23T19:30:20.095Z,10.24
2022-09-23T19:32:50.378Z,9.91
2022-09-23T19:35:21.031Z,9.82
2022-09-23T19:37:58.179Z,9.92
2022-09-23T19:40:32.772Z,10.11
2022-09-23T19:43:05.704Z,10.19
2022-09-23T19:45:38.764Z,9.84
2022-09-23T19:48:09.950Z,10.08
2022-09-23T19:50:40.058Z,9.83
2022-09-23T19:53:09.890Z,9.92
2022-09-23T19:55:39.412Z,10.15
2022-09-23T19:58:13.133Z,9.92
2022-09-23T20:00:42.462Z,10.12
2022-09-23T20:03:12.860Z,9.86
2022-09-23T20:05:41.670Z,9.19
2022-09-23T20:08:12.125Z,9.40
2022-09-23T20:10:47.800Z,9.37
2022-09-23T20:16:06.627Z,9.81
2022-09-23T20:18:37.510Z,9.55
2022-09-23T20:21:06.602Z,9.79
2022-09-23T20:23:35.722Z,9.32
2022-09-23T20:26:25.541Z,9.56
2022-09-23T20:28:53.986Z,9.50
2022-09-23T20:31:22.669Z,9.44
2022-09-23T20:33:58.650Z,9.38
2022-09-23T20:36:27.565Z,9.69
2022-09-23T20:38:56.949Z,9.58
2022-09-23T20:41:25.267Z,9.18
2022-09-23T20:43:59.728Z,9.37
2022-09-23T20:46:28.933Z,9.07
2022-09-23T20:48:57.423Z,9.13
2022-09-23T20:51:27.278Z,8.90
2022-09-23T20:53:56.191Z,9.15
2022-09-23T20:56:29.387Z,9.14
2022-09-23T20:59:02.502Z,9.13
2022-09-23T21:01:34.567Z,8.77
2022-09-23T21:04:11.558Z,9.28
2022-09-23T21:06:40.010Z,9.19
2022-09-23T21:09:08.385Z,9.12
2022-09-23T21:11:36.665Z,9.18
2022-09-23T21:14:06.067Z,9.26
2022-09-23T21:16:34.704Z,9.14
2022-09-23T21:19:04.086Z,9.30
2022-09-23T21:21:32.433Z,9.17
2022-09-23T21:24:23.924Z,8.84
2022-09-23T21:26:50.648Z,8.76
2022-09-23T21:29:19.023Z,8.87
2022-09-23T21:31:49.906Z,8.54
2022-09-23T21:34:18.378Z,8.06
2022-09-23T21:36:48.266Z,8.50
2022-09-23T21:39:16.672Z,8.41
2022-09-23T21:41:45.031Z,7.77
2022-09-23T21:44:13.472Z,7.78
2022-09-23T21:46:41.881Z,8.37
2022-09-23T21:49:10.253Z,8.13
2022-09-23T21:51:41.303Z,8.14
2022-09-23T21:54:15.950Z,7.54
2022-09-23T21:56:44.519Z,7.43
2022-09-23T21:59:13.256Z,7.95
2022-09-23T22:01:44.719Z,8.22
2022-09-23T22:04:18.190Z,8.24
2022-09-23T22:06:49.128Z,8.14
2022-09-23T22:09:19.044Z,7.46
2022-09-23T22:12:07.961Z,7.55
2022-09-23T22:14:36.584Z,7.76
2022-09-23T22:17:05.978Z,7.69
2022-09-23T22:19:35.920Z,7.89
2022-09-23T22:22:08.826Z,7.39
2022-09-23T22:24:37.051Z,7.54
2022-09-23T22:27:05.295Z,7.79
2022-09-23T22:29:51.946Z,7.19
2022-09-23T22:32:38.715Z,6.47
2022-09-23T22:35:19.463Z,6.80
2022-09-23T22:37:48.239Z,6.92
2022-09-23T22:40:16.792Z,6.81
2022-09-23T22:42:45.849Z,5.76
2022-09-23T22:45:14.210Z,5.98
2022-09-23T22:47:44.379Z,6.44
2022-09-23T22:50:14.133Z,6.83
2022-09-23T22:52:42.730Z,7.00
2022-09-23T22:55:11.334Z,6.47
2022-09-23T22:57:39.656Z,6.83
2022-09-23T23:00:08.703Z,7.03
2022-09-23T23:02:37.005Z,7.15
2022-09-23T23:05:05.789Z,6.32
2022-09-23T23:07:35.327Z,6.68
2022-09-23T23:10:04.915Z,6.83
2022-09-23T23:12:33.809Z,6.76
2022-09-23T23:15:02.089Z,6.17
2022-09-23T23:17:30.626Z,6.71
2022-09-23T23:19:58.880Z,6.56
2022-09-23T23:22:28.695Z,6.83
2022-09-23T23:24:57.059Z,7.00
2022-09-23T23:27:25.240Z,6.50
2022-09-23T23:29:53.513Z,6.78
2022-09-23T23:32:21.810Z,6.38
2022-09-23T23:34:49.988Z,6.08
2022-09-23T23:37:20.906Z,6.48
2022-09-23T23:39:49.538Z,5.81
2022-09-23T23:42:17.985Z,5.93
2022-09-23T23:44:46.334Z,6.00
2022-09-23T23:47:14.805Z,5.66
2022-09-23T23:49:43.071Z,5.39
2022-09-23T23:52:11.390Z,5.96
2022-09-23T23:54:39.641Z,6.29
2022-09-23T23:57:07.898Z,4.86
2022-09-23T23:59:36.180Z,5.10
